sensor_id;sensor_type;location;lat;lon;timestamp;noise_LAeq;noise_LA_min;noise_LA_max;noise_LA01;noise_LA95
76100;Laerm;64828;49.956;8.636;2024-03-23T00:51:02;65.12;61.87;68.38;;
76100;Laerm;64828;49.956;8.636;2024-03-23T00:53:18;65.53;61.93;69.07;;
76100;Laerm;64828;49.956;8.636;2024-03-23T00:53:50;65.88;61.66;69.25;;
76100;Laerm;64828;49.956;8.636;2024-03-23T00:54:06;66.79;63.47;69.16;;
76100;Laerm;64828;49.956;8.636;2024-03-23T00:54:21;67.74;62.95;70.80;;
76100;Laerm;64828;49.956;8.636;2024-03-23T00:54:37;67.67;64.74;70.28;;
76100;Laerm;64828;49.956;8.636;2024-03-23T00:54:53;67.42;64.26;70.71;;
76100;Laerm;64828;49.956;8.636;2024-03-23T00:55:08;66.73;63.15;69.24;;
76100;Laerm;64828;49.956;8.636;2024-03-23T00:55:24;67.03;63.63;69.53;;
76100;Laerm;64828;49.956;8.636;2024-03-23T00:55:40;67.42;62.57;70.67;;
76100;Laerm;64828;49.956;8.636;2024-03-23T00:55:56;68.28;65.26;71.42;;
76100;Laerm;64828;49.956;8.636;2024-03-23T00:56:11;67.69;65.13;70.36;;
76100;Laerm;64828;49.956;8.636;2024-03-23T00:56:27;67.49;64.68;69.94;;
76100;Laerm;64828;49.956;8.636;2024-03-23T00:56:42;68.40;63.49;72.32;;
76100;Laerm;64828;49.956;8.636;2024-03-23T00:56:58;69.05;65.37;72.56;;
76100;Laerm;64828;49.956;8.636;2024-03-23T00:57:14;69.20;65.70;71.67;;
76100;Laerm;64828;49.956;8.636;2024-03-23T00:57:29;69.10;65.44;72.38;;
76100;Laerm;64828;49.956;8.636;2024-03-23T00:57:45;70.14;66.61;73.68;;
76100;Laerm;64828;49.956;8.636;2024-03-23T00:58:01;71.15;68.15;73.84;;
76100;Laerm;64828;49.956;8.636;2024-03-23T00:58:17;69.78;66.15;73.10;;
76100;Laerm;64828;49.956;8.636;2024-03-23T00:58:32;68.54;65.91;71.28;;
76100;Laerm;64828;49.956;8.636;2024-03-23T00:58:48;67.83;64.98;70.69;;
76100;Laerm;64828;49.956;8.636;2024-03-23T00:59:04;66.71;62.29;69.88;;
76100;Laerm;64828;49.956;8.636;2024-03-23T00:59:20;66.07;62.88;69.15;;
76100;Laerm;64828;49.956;8.636;2024-03-23T00:59:37;65.00;61.50;68.39;;
76100;Laerm;64828;49.956;8.636;2024-03-23T00:59:53;65.54;61.22;68.84;;
76100;Laerm;64828;49.956;8.636;2024-03-23T01:00:09;67.42;63.72;70.48;;
76100;Laerm;64828;49.956;8.636;2024-03-23T01:00:26;70.33;66.39;73.40;;
76100;Laerm;64828;49.956;8.636;2024-03-23T01:00:41;70.50;67.62;72.91;;
76100;Laerm;64828;49.956;8.636;2024-03-23T01:00:57;69.78;65.67;72.66;;
76100;Laerm;64828;49.956;8.636;2024-03-23T01:01:12;67.44;64.79;70.98;;
76100;Laerm;64828;49.956;8.636;2024-03-23T01:01:28;67.73;65.19;71.07;;
76100;Laerm;64828;49.956;8.636;2024-03-23T01:01:47;68.00;65.51;70.12;;
76100;Laerm;64828;49.956;8.636;2024-03-23T01:02:03;67.16;63.26;69.89;;
76100;Laerm;64828;49.956;8.636;2024-03-23T01:02:18;67.29;64.04;70.27;;
76100;Laerm;64828;49.956;8.636;2024-03-23T01:02:34;67.56;64.81;70.40;;
76100;Laerm;64828;49.956;8.636;2024-03-23T01:02:50;66.38;62.61;69.28;;
76100;Laerm;64828;49.956;8.636;2024-03-23T01:03:05;65.42;62.50;69.00;;
76100;Laerm;64828;49.956;8.636;2024-03-23T01:03:21;66.48;63.35;69.13;;
76100;Laerm;64828;49.956;8.636;2024-03-23T01:03:36;67.21;64.42;70.48;;
76100;Laerm;64828;49.956;8.636;2024-03-23T01:03:52;67.43;64.59;69.77;;
76100;Laerm;64828;49.956;8.636;2024-03-23T01:04:08;67.40;64.02;70.60;;
76100;Laerm;64828;49.956;8.636;2024-03-23T01:04:23;67.31;64.08;70.06;;
76100;Laerm;64828;49.956;8.636;2024-03-23T01:04:39;66.67;63.73;69.80;;
76100;Laerm;64828;49.956;8.636;2024-03-23T01:04:55;67.31;64.02;69.84;;
76100;Laerm;64828;49.956;8.636;2024-03-23T01:05:10;67.60;64.97;70.10;;
76100;Laerm;64828;49.956;8.636;2024-03-23T01:05:26;67.76;64.66;70.44;;
76100;Laerm;64828;49.956;8.636;2024-03-23T01:05:42;67.16;63.56;69.44;;
76100;Laerm;64828;49.956;8.636;2024-03-23T01:06:01;67.46;64.27;70.27;;
76100;Laerm;64828;49.956;8.636;2024-03-23T01:06:17;68.20;64.92;70.75;;
76100;Laerm;64828;49.956;8.636;2024-03-23T01:06:32;67.73;64.30;70.18;;
76100;Laerm;64828;49.956;8.636;2024-03-23T01:06:48;68.01;64.43;70.68;;
76100;Laerm;64828;49.956;8.636;2024-03-23T01:07:04;68.32;65.62;70.93;;
76100;Laerm;64828;49.956;8.636;2024-03-23T01:07:19;67.80;64.40;70.22;;
76100;Laerm;64828;49.956;8.636;2024-03-23T01:07:35;68.35;65.36;71.14;;
76100;Laerm;64828;49.956;8.636;2024-03-23T01:07:51;68.30;65.12;70.87;;
76100;Laerm;64828;49.956;8.636;2024-03-23T01:08:06;67.83;64.96;70.75;;
76100;Laerm;64828;49.956;8.636;2024-03-23T01:08:22;66.61;63.38;69.62;;
76100;Laerm;64828;49.956;8.636;2024-03-23T01:08:38;66.87;63.65;69.34;;
76100;Laerm;64828;49.956;8.636;2024-03-23T01:08:53;67.18;64.23;69.32;;
76100;Laerm;64828;49.956;8.636;2024-03-23T01:09:09;68.01;64.37;71.06;;
76100;Laerm;64828;49.956;8.636;2024-03-23T01:09:26;68.61;65.03;71.54;;
76100;Laerm;64828;49.956;8.636;2024-03-23T01:09:41;73.81;65.37;77.28;;
76100;Laerm;64828;49.956;8.636;2024-03-23T01:09:57;73.35;70.42;75.73;;
76100;Laerm;64828;49.956;8.636;2024-03-23T01:10:13;73.46;70.43;75.87;;
76100;Laerm;64828;49.956;8.636;2024-03-23T01:10:28;70.85;67.62;73.93;;
76100;Laerm;64828;49.956;8.636;2024-03-23T01:10:57;70.84;68.16;73.47;;
76100;Laerm;64828;49.956;8.636;2024-03-23T01:11:13;70.73;67.66;73.50;;
76100;Laerm;64828;49.956;8.636;2024-03-23T01:11:29;70.69;67.81;73.86;;
76100;Laerm;64828;49.956;8.636;2024-03-23T01:11:44;69.67;65.79;72.60;;
76100;Laerm;64828;49.956;8.636;2024-03-23T01:12:00;70.11;66.39;72.66;;
76100;Laerm;64828;49.956;8.636;2024-03-23T01:12:17;68.67;65.60;71.82;;
76100;Laerm;64828;49.956;8.636;2024-03-23T01:12:32;68.36;65.31;71.06;;
76100;Laerm;64828;49.956;8.636;2024-03-23T01:12:48;68.15;65.40;71.81;;
76100;Laerm;64828;49.956;8.636;2024-03-23T01:13:04;67.16;64.41;69.95;;
76100;Laerm;64828;49.956;8.636;2024-03-23T01:13:20;67.00;64.29;70.12;;
76100;Laerm;64828;49.956;8.636;2024-03-23T01:13:37;67.87;64.73;71.18;;
76100;Laerm;64828;49.956;8.636;2024-03-23T01:13:54;67.49;63.77;70.33;;
76100;Laerm;64828;49.956;8.636;2024-03-23T01:14:11;67.41;64.36;69.90;;
76100;Laerm;64828;49.956;8.636;2024-03-23T01:14:27;67.73;64.74;71.38;;
76100;Laerm;64828;49.956;8.636;2024-03-23T01:14:42;67.63;64.73;70.63;;
76100;Laerm;64828;49.956;8.636;2024-03-23T01:14:58;67.41;64.81;69.95;;
76100;Laerm;64828;49.956;8.636;2024-03-23T01:15:13;67.65;64.05;70.56;;
76100;Laerm;64828;49.956;8.636;2024-03-23T01:15:29;66.50;63.22;69.44;;
76100;Laerm;64828;49.956;8.636;2024-03-23T01:15:49;64.37;61.15;66.78;;
76100;Laerm;64828;49.956;8.636;2024-03-23T01:16:05;64.31;61.71;66.97;;
76100;Laerm;64828;49.956;8.636;2024-03-23T01:16:21;66.28;62.51;69.21;;
76100;Laerm;64828;49.956;8.636;2024-03-23T01:16:37;65.59;61.22;69.22;;
76100;Laerm;64828;49.956;8.636;2024-03-23T01:16:52;66.52;62.81;70.07;;
76100;Laerm;64828;49.956;8.636;2024-03-23T01:17:08;67.00;63.40;69.65;;
76100;Laerm;64828;49.956;8.636;2024-03-23T01:17:23;66.37;63.20;69.00;;
76100;Laerm;64828;49.956;8.636;2024-03-23T01:17:39;66.49;63.70;70.34;;
76100;Laerm;64828;49.956;8.636;2024-03-23T01:17:55;66.09;63.11;69.34;;
76100;Laerm;64828;49.956;8.636;2024-03-23T01:18:10;66.44;63.33;69.72;;
76100;Laerm;64828;49.956;8.636;2024-03-23T01:18:26;64.88;62.16;67.73;;
76100;Laerm;64828;49.956;8.636;2024-03-23T01:18:42;66.36;63.25;69.57;;
76100;Laerm;64828;49.956;8.636;2024-03-23T01:18:58;67.24;64.21;69.57;;
76100;Laerm;64828;49.956;8.636;2024-03-23T01:19:13;67.14;64.35;70.14;;
76100;Laerm;64828;49.956;8.636;2024-03-23T01:19:29;66.59;64.03;69.12;;
76100;Laerm;64828;49.956;8.636;2024-03-23T01:19:45;67.03;64.51;69.48;;
76100;Laerm;64828;49.956;8.636;2024-03-23T01:20:01;66.87;63.62;69.76;;
76100;Laerm;64828;49.956;8.636;2024-03-23T01:20:18;64.87;61.31;68.21;;
76100;Laerm;64828;49.956;8.636;2024-03-23T01:20:33;64.30;62.07;66.79;;
76100;Laerm;64828;49.956;8.636;2024-03-23T01:20:49;63.85;61.13;66.23;;
76100;Laerm;64828;49.956;8.636;2024-03-23T01:21:05;64.22;61.21;67.13;;
76100;Laerm;64828;49.956;8.636;2024-03-23T01:21:21;64.20;61.69;66.69;;
76100;Laerm;64828;49.956;8.636;2024-03-23T01:21:36;63.70;60.80;65.86;;
76100;Laerm;64828;49.956;8.636;2024-03-23T01:21:52;64.14;61.60;67.68;;
76100;Laerm;64828;49.956;8.636;2024-03-23T01:22:08;63.93;61.45;66.55;;
76100;Laerm;64828;49.956;8.636;2024-03-23T01:22:25;63.99;60.48;66.25;;
76100;Laerm;64828;49.956;8.636;2024-03-23T01:22:42;63.59;60.64;66.13;;
76100;Laerm;64828;49.956;8.636;2024-03-23T01:22:58;63.57;60.18;66.38;;
76100;Laerm;64828;49.956;8.636;2024-03-23T01:23:14;63.79;61.40;66.38;;
76100;Laerm;64828;49.956;8.636;2024-03-23T01:23:29;64.02;61.36;66.54;;
76100;Laerm;64828;49.956;8.636;2024-03-23T01:23:45;63.55;60.14;66.11;;
76100;Laerm;64828;49.956;8.636;2024-03-23T01:24:01;61.75;57.90;64.73;;
76100;Laerm;64828;49.956;8.636;2024-03-23T01:24:16;61.69;58.21;64.52;;
76100;Laerm;64828;49.956;8.636;2024-03-23T01:24:32;61.95;58.66;65.23;;
76100;Laerm;64828;49.956;8.636;2024-03-23T01:24:48;62.08;58.72;65.07;;
76100;Laerm;64828;49.956;8.636;2024-03-23T01:25:04;61.46;57.27;65.01;;
76100;Laerm;64828;49.956;8.636;2024-03-23T01:25:20;61.59;57.23;64.53;;
76100;Laerm;64828;49.956;8.636;2024-03-23T01:25:35;63.22;59.94;66.29;;
76100;Laerm;64828;49.956;8.636;2024-03-23T01:25:54;63.02;59.30;66.50;;
76100;Laerm;64828;49.956;8.636;2024-03-23T01:26:10;62.52;59.29;65.37;;
76100;Laerm;64828;49.956;8.636;2024-03-23T01:26:25;63.17;59.96;65.85;;
76100;Laerm;64828;49.956;8.636;2024-03-23T01:26:41;62.35;58.89;65.37;;
76100;Laerm;64828;49.956;8.636;2024-03-23T01:26:57;62.63;58.58;65.06;;
76100;Laerm;64828;49.956;8.636;2024-03-23T01:27:13;62.95;59.31;65.54;;
76100;Laerm;64828;49.956;8.636;2024-03-23T01:27:28;63.32;59.69;65.61;;
76100;Laerm;64828;49.956;8.636;2024-03-23T01:27:44;63.74;60.75;67.38;;
76100;Laerm;64828;49.956;8.636;2024-03-23T01:28:00;63.43;60.05;65.68;;
76100;Laerm;64828;49.956;8.636;2024-03-23T01:28:15;62.82;59.30;66.32;;
76100;Laerm;64828;49.956;8.636;2024-03-23T01:28:31;62.16;59.14;64.91;;
76100;Laerm;64828;49.956;8.636;2024-03-23T01:28:47;62.31;58.91;65.72;;
76100;Laerm;64828;49.956;8.636;2024-03-23T01:29:02;62.83;59.53;66.07;;
76100;Laerm;64828;49.956;8.636;2024-03-23T01:29:18;63.36;60.21;67.49;;
76100;Laerm;64828;49.956;8.636;2024-03-23T01:29:34;62.64;59.64;65.59;;
76100;Laerm;64828;49.956;8.636;2024-03-23T01:29:49;62.72;59.65;65.67;;
76100;Laerm;64828;49.956;8.636;2024-03-23T01:30:07;62.82;59.30;65.48;;
76100;Laerm;64828;49.956;8.636;2024-03-23T01:30:23;63.50;60.51;66.55;;
76100;Laerm;64828;49.956;8.636;2024-03-23T01:30:38;62.66;59.60;65.79;;
76100;Laerm;64828;49.956;8.636;2024-03-23T01:30:54;63.21;60.04;65.77;;
76100;Laerm;64828;49.956;8.636;2024-03-23T01:31:10;63.47;60.08;66.10;;
76100;Laerm;64828;49.956;8.636;2024-03-23T01:31:25;63.85;60.03;66.48;;
76100;Laerm;64828;49.956;8.636;2024-03-23T01:31:41;64.27;61.37;67.00;;
76100;Laerm;64828;49.956;8.636;2024-03-23T01:31:57;64.64;61.40;67.30;;
76100;Laerm;64828;49.956;8.636;2024-03-23T01:32:12;64.30;61.31;66.85;;
76100;Laerm;64828;49.956;8.636;2024-03-23T01:32:28;64.33;61.53;67.07;;
76100;Laerm;64828;49.956;8.636;2024-03-23T01:32:44;63.17;59.84;65.78;;
76100;Laerm;64828;49.956;8.636;2024-03-23T01:32:59;63.21;60.03;66.23;;
76100;Laerm;64828;49.956;8.636;2024-03-23T01:33:15;63.93;60.50;66.23;;
76100;Laerm;64828;49.956;8.636;2024-03-23T01:33:31;63.82;61.01;66.70;;
76100;Laerm;64828;49.956;8.636;2024-03-23T01:33:47;64.10;61.12;66.44;;
76100;Laerm;64828;49.956;8.636;2024-03-23T01:34:02;63.96;60.96;66.83;;
76100;Laerm;64828;49.956;8.636;2024-03-23T01:34:18;63.99;61.22;66.34;;
76100;Laerm;64828;49.956;8.636;2024-03-23T01:34:36;63.85;60.74;66.47;;
76100;Laerm;64828;49.956;8.636;2024-03-23T01:34:51;63.79;60.23;66.01;;
76100;Laerm;64828;49.956;8.636;2024-03-23T01:35:07;63.68;60.28;66.22;;
76100;Laerm;64828;49.956;8.636;2024-03-23T01:35:23;63.64;60.25;66.33;;
76100;Laerm;64828;49.956;8.636;2024-03-23T01:35:39;62.75;59.50;65.91;;
76100;Laerm;64828;49.956;8.636;2024-03-23T01:35:55;62.39;58.97;65.23;;
76100;Laerm;64828;49.956;8.636;2024-03-23T01:36:10;62.36;59.14;65.28;;
76100;Laerm;64828;49.956;8.636;2024-03-23T01:36:26;62.23;58.79;65.23;;
76100;Laerm;64828;49.956;8.636;2024-03-23T01:36:42;62.19;58.28;65.37;;
76100;Laerm;64828;49.956;8.636;2024-03-23T01:36:57;62.15;58.67;65.05;;
76100;Laerm;64828;49.956;8.636;2024-03-23T01:37:14;62.07;58.62;65.34;;
76100;Laerm;64828;49.956;8.636;2024-03-23T01:37:29;60.80;57.82;63.93;;
76100;Laerm;64828;49.956;8.636;2024-03-23T01:37:45;61.15;57.56;64.47;;
76100;Laerm;64828;49.956;8.636;2024-03-23T01:38:01;61.09;57.81;64.15;;
76100;Laerm;64828;49.956;8.636;2024-03-23T01:38:16;61.46;57.66;64.57;;
76100;Laerm;64828;49.956;8.636;2024-03-23T01:38:32;62.02;58.63;64.43;;
76100;Laerm;64828;49.956;8.636;2024-03-23T01:38:48;62.28;59.13;65.12;;
76100;Laerm;64828;49.956;8.636;2024-03-23T01:39:03;62.97;59.60;65.67;;
76100;Laerm;64828;49.956;8.636;2024-03-23T01:39:19;62.26;59.15;65.67;;
76100;Laerm;64828;49.956;8.636;2024-03-23T01:39:35;61.80;59.04;64.29;;
76100;Laerm;64828;49.956;8.636;2024-03-23T01:39:50;61.73;58.00;64.58;;
76100;Laerm;64828;49.956;8.636;2024-03-23T01:40:07;61.42;57.52;64.97;;
76100;Laerm;64828;49.956;8.636;2024-03-23T01:40:23;61.95;58.92;64.89;;
76100;Laerm;64828;49.956;8.636;2024-03-23T01:40:38;60.41;57.37;63.85;;
76100;Laerm;64828;49.956;8.636;2024-03-23T01:41:00;60.62;57.24;63.59;;
76100;Laerm;64828;49.956;8.636;2024-03-23T01:41:15;60.27;57.43;63.08;;
76100;Laerm;64828;49.956;8.636;2024-03-23T01:41:31;60.28;57.03;63.18;;
76100;Laerm;64828;49.956;8.636;2024-03-23T01:41:47;60.42;57.01;63.23;;
76100;Laerm;64828;49.956;8.636;2024-03-23T01:42:03;61.63;58.28;64.71;;
76100;Laerm;64828;49.956;8.636;2024-03-23T01:42:19;60.79;57.76;64.60;;
76100;Laerm;64828;49.956;8.636;2024-03-23T01:42:35;61.18;57.27;64.24;;
76100;Laerm;64828;49.956;8.636;2024-03-23T01:42:58;61.97;58.38;65.91;;
76100;Laerm;64828;49.956;8.636;2024-03-23T01:43:14;62.07;58.78;65.06;;
76100;Laerm;64828;49.956;8.636;2024-03-23T01:43:29;61.97;57.83;65.83;;
76100;Laerm;64828;49.956;8.636;2024-03-23T01:43:45;60.40;56.86;63.05;;
76100;Laerm;64828;49.956;8.636;2024-03-23T01:44:05;60.53;57.24;63.27;;
76100;Laerm;64828;49.956;8.636;2024-03-23T01:44:24;60.32;57.35;62.90;;
76100;Laerm;64828;49.956;8.636;2024-03-23T01:44:40;60.38;57.09;63.58;;
76100;Laerm;64828;49.956;8.636;2024-03-23T01:44:56;60.97;57.21;63.34;;
76100;Laerm;64828;49.956;8.636;2024-03-23T01:45:11;60.22;57.08;63.17;;
76100;Laerm;64828;49.956;8.636;2024-03-23T01:45:27;61.17;57.52;64.30;;
76100;Laerm;64828;49.956;8.636;2024-03-23T01:45:43;61.35;58.10;64.95;;
76100;Laerm;64828;49.956;8.636;2024-03-23T01:45:58;60.56;57.58;63.62;;
76100;Laerm;64828;49.956;8.636;2024-03-23T01:46:14;61.39;57.55;64.84;;
76100;Laerm;64828;49.956;8.636;2024-03-23T01:46:30;61.46;57.26;64.21;;
76100;Laerm;64828;49.956;8.636;2024-03-23T01:46:46;60.23;57.04;62.68;;
76100;Laerm;64828;49.956;8.636;2024-03-23T01:47:01;60.17;56.99;62.72;;
76100;Laerm;64828;49.956;8.636;2024-03-23T01:47:17;60.21;57.63;63.17;;
76100;Laerm;64828;49.956;8.636;2024-03-23T01:47:33;59.93;55.93;62.51;;
76100;Laerm;64828;49.956;8.636;2024-03-23T01:47:51;59.87;56.82;63.15;;
76100;Laerm;64828;49.956;8.636;2024-03-23T01:48:08;59.99;55.93;62.73;;
76100;Laerm;64828;49.956;8.636;2024-03-23T01:48:24;59.75;55.62;63.09;;
76100;Laerm;64828;49.956;8.636;2024-03-23T01:48:40;59.84;56.29;63.65;;
76100;Laerm;64828;49.956;8.636;2024-03-23T01:48:55;59.77;56.76;62.36;;
76100;Laerm;64828;49.956;8.636;2024-03-23T01:49:12;58.75;55.11;62.03;;
76100;Laerm;64828;49.956;8.636;2024-03-23T01:49:28;58.17;55.01;61.18;;
76100;Laerm;64828;49.956;8.636;2024-03-23T01:49:43;59.51;55.31;62.67;;
76100;Laerm;64828;49.956;8.636;2024-03-23T01:49:59;58.73;54.39;61.23;;
76100;Laerm;64828;49.956;8.636;2024-03-23T01:50:15;58.08;54.70;61.06;;
76100;Laerm;64828;49.956;8.636;2024-03-23T01:50:31;58.07;54.31;60.75;;
76100;Laerm;64828;49.956;8.636;2024-03-23T01:50:50;59.62;55.84;62.92;;
76100;Laerm;64828;49.956;8.636;2024-03-23T01:51:07;61.68;57.26;65.16;;
76100;Laerm;64828;49.956;8.636;2024-03-23T01:51:23;61.64;56.97;64.59;;
76100;Laerm;64828;49.956;8.636;2024-03-23T01:51:39;60.11;57.08;62.42;;
76100;Laerm;64828;49.956;8.636;2024-03-23T01:51:55;60.35;56.95;62.65;;
76100;Laerm;64828;49.956;8.636;2024-03-23T01:52:11;60.66;57.32;63.94;;
76100;Laerm;64828;49.956;8.636;2024-03-23T01:52:27;60.03;56.91;63.12;;
76100;Laerm;64828;49.956;8.636;2024-03-23T01:52:43;59.84;56.49;63.05;;
76100;Laerm;64828;49.956;8.636;2024-03-23T01:53:04;60.20;56.80;63.06;;
76100;Laerm;64828;49.956;8.636;2024-03-23T01:53:22;60.21;57.43;62.93;;
76100;Laerm;64828;49.956;8.636;2024-03-23T01:53:38;60.43;57.13;63.47;;
76100;Laerm;64828;49.956;8.636;2024-03-23T01:53:54;60.44;57.35;64.17;;
76100;Laerm;64828;49.956;8.636;2024-03-23T01:54:12;60.13;55.73;63.11;;
76100;Laerm;64828;49.956;8.636;2024-03-23T01:54:29;59.86;56.07;62.85;;
76100;Laerm;64828;49.956;8.636;2024-03-23T01:54:44;60.02;56.73;62.93;;
76100;Laerm;64828;49.956;8.636;2024-03-23T01:55:00;60.10;57.26;63.00;;
76100;Laerm;64828;49.956;8.636;2024-03-23T01:55:16;59.93;56.54;63.14;;
76100;Laerm;64828;49.956;8.636;2024-03-23T01:55:33;60.18;57.10;62.92;;
76100;Laerm;64828;49.956;8.636;2024-03-23T01:55:50;60.29;57.02;62.92;;
76100;Laerm;64828;49.956;8.636;2024-03-23T01:56:07;60.54;56.97;63.05;;
76100;Laerm;64828;49.956;8.636;2024-03-23T01:56:23;60.20;56.32;63.05;;
76100;Laerm;64828;49.956;8.636;2024-03-23T01:56:38;60.21;57.30;62.85;;
76100;Laerm;64828;49.956;8.636;2024-03-23T01:56:54;60.13;57.33;62.77;;
76100;Laerm;64828;49.956;8.636;2024-03-23T01:57:10;60.27;57.23;62.88;;
76100;Laerm;64828;49.956;8.636;2024-03-23T01:57:26;60.59;57.42;63.69;;
76100;Laerm;64828;49.956;8.636;2024-03-23T01:57:42;60.28;57.17;62.83;;
76100;Laerm;64828;49.956;8.636;2024-03-23T01:57:58;60.75;57.17;63.99;;
76100;Laerm;64828;49.956;8.636;2024-03-23T01:58:13;60.62;57.38;63.14;;
76100;Laerm;64828;49.956;8.636;2024-03-23T01:58:29;60.43;57.32;63.06;;
76100;Laerm;64828;49.956;8.636;2024-03-23T01:58:46;60.27;57.31;62.65;;
76100;Laerm;64828;49.956;8.636;2024-03-23T01:59:06;60.32;57.44;63.29;;
76100;Laerm;64828;49.956;8.636;2024-03-23T01:59:23;60.51;56.88;63.57;;
76100;Laerm;64828;49.956;8.636;2024-03-23T01:59:39;61.91;58.45;64.95;;
76100;Laerm;64828;49.956;8.636;2024-03-23T01:59:54;60.24;57.61;62.53;;
76100;Laerm;64828;49.956;8.636;2024-03-23T02:00:11;60.18;55.60;62.94;;
76100;Laerm;64828;49.956;8.636;2024-03-23T02:00:27;60.11;57.02;62.69;;
76100;Laerm;64828;49.956;8.636;2024-03-23T02:00:43;59.95;56.75;62.77;;
76100;Laerm;64828;49.956;8.636;2024-03-23T02:00:59;59.86;56.30;63.05;;
76100;Laerm;64828;49.956;8.636;2024-03-23T02:01:14;60.05;56.34;62.87;;
76100;Laerm;64828;49.956;8.636;2024-03-23T02:01:31;59.82;56.57;63.23;;
76100;Laerm;64828;49.956;8.636;2024-03-23T02:01:46;59.69;56.01;62.49;;
76100;Laerm;64828;49.956;8.636;2024-03-23T02:02:02;59.80;56.45;62.58;;
76100;Laerm;64828;49.956;8.636;2024-03-23T02:02:18;59.75;56.33;62.85;;
76100;Laerm;64828;49.956;8.636;2024-03-23T02:02:35;59.24;54.94;62.51;;
76100;Laerm;64828;49.956;8.636;2024-03-23T02:02:50;59.39;55.51;62.54;;
76100;Laerm;64828;49.956;8.636;2024-03-23T02:03:26;58.52;53.81;62.73;;
76100;Laerm;64828;49.956;8.636;2024-03-23T02:03:41;58.13;54.67;61.14;;
76100;Laerm;64828;49.956;8.636;2024-03-23T02:03:58;58.28;54.89;61.21;;
76100;Laerm;64828;49.956;8.636;2024-03-23T02:04:14;58.20;54.81;61.95;;
76100;Laerm;64828;49.956;8.636;2024-03-23T02:04:29;57.70;52.69;61.46;;
76100;Laerm;64828;49.956;8.636;2024-03-23T02:04:45;58.04;54.81;61.31;;
76100;Laerm;64828;49.956;8.636;2024-03-23T02:05:01;58.02;54.80;61.60;;
76100;Laerm;64828;49.956;8.636;2024-03-23T02:05:17;58.14;54.33;62.11;;
76100;Laerm;64828;49.956;8.636;2024-03-23T02:05:32;58.17;54.27;61.77;;
76100;Laerm;64828;49.956;8.636;2024-03-23T02:05:48;58.21;54.13;61.26;;
76100;Laerm;64828;49.956;8.636;2024-03-23T02:06:05;58.48;54.73;62.47;;
76100;Laerm;64828;49.956;8.636;2024-03-23T02:06:24;58.19;54.17;61.95;;
76100;Laerm;64828;49.956;8.636;2024-03-23T02:06:40;59.33;55.03;63.03;;
76100;Laerm;64828;49.956;8.636;2024-03-23T02:06:55;59.93;56.00;63.16;;
76100;Laerm;64828;49.956;8.636;2024-03-23T02:07:11;59.76;56.84;62.49;;
76100;Laerm;64828;49.956;8.636;2024-03-23T02:07:27;59.36;55.60;62.05;;
76100;Laerm;64828;49.956;8.636;2024-03-23T02:07:43;58.29;55.16;61.82;;
76100;Laerm;64828;49.956;8.636;2024-03-23T02:07:58;58.08;55.42;61.12;;
76100;Laerm;64828;49.956;8.636;2024-03-23T02:08:14;59.54;55.83;62.32;;
76100;Laerm;64828;49.956;8.636;2024-03-23T02:08:31;59.26;55.73;62.10;;
76100;Laerm;64828;49.956;8.636;2024-03-23T02:08:46;59.75;55.51;62.92;;
76100;Laerm;64828;49.956;8.636;2024-03-23T02:09:03;59.70;56.44;62.89;;
76100;Laerm;64828;49.956;8.636;2024-03-23T02:09:19;59.73;56.62;62.80;;
76100;Laerm;64828;49.956;8.636;2024-03-23T02:09:34;59.63;55.62;62.64;;
76100;Laerm;64828;49.956;8.636;2024-03-23T02:09:51;59.59;55.74;63.05;;
76100;Laerm;64828;49.956;8.636;2024-03-23T02:10:09;59.88;56.03;63.01;;
76100;Laerm;64828;49.956;8.636;2024-03-23T02:10:25;59.47;54.90;62.87;;
76100;Laerm;64828;49.956;8.636;2024-03-23T02:10:41;59.79;56.53;63.10;;
76100;Laerm;64828;49.956;8.636;2024-03-23T02:10:57;59.94;56.86;63.25;;
76100;Laerm;64828;49.956;8.636;2024-03-23T02:11:14;59.57;55.61;62.68;;
76100;Laerm;64828;49.956;8.636;2024-03-23T02:11:30;59.65;54.76;63.29;;
76100;Laerm;64828;49.956;8.636;2024-03-23T02:11:45;60.22;57.24;62.99;;
76100;Laerm;64828;49.956;8.636;2024-03-23T02:12:04;60.06;56.10;63.11;;
76100;Laerm;64828;49.956;8.636;2024-03-23T02:12:21;59.78;56.62;62.54;;
76100;Laerm;64828;49.956;8.636;2024-03-23T02:12:37;60.13;57.20;63.06;;
76100;Laerm;64828;49.956;8.636;2024-03-23T02:12:52;60.19;56.29;63.84;;
76100;Laerm;64828;49.956;8.636;2024-03-23T02:13:09;59.99;56.90;62.34;;
76100;Laerm;64828;49.956;8.636;2024-03-23T02:13:25;59.66;56.09;63.25;;
76100;Laerm;64828;49.956;8.636;2024-03-23T02:13:40;59.73;55.85;62.52;;
76100;Laerm;64828;49.956;8.636;2024-03-23T02:13:56;59.55;54.89;62.54;;
76100;Laerm;64828;49.956;8.636;2024-03-23T02:14:12;59.98;56.50;62.84;;
76100;Laerm;64828;49.956;8.636;2024-03-23T02:14:27;60.19;56.85;62.95;;
76100;Laerm;64828;49.956;8.636;2024-03-23T02:14:43;60.15;57.04;62.99;;
76100;Laerm;64828;49.956;8.636;2024-03-23T02:14:59;60.36;57.08;64.13;;
76100;Laerm;64828;49.956;8.636;2024-03-23T02:15:15;60.10;57.14;62.65;;
76100;Laerm;64828;49.956;8.636;2024-03-23T02:15:30;59.88;55.98;63.43;;
76100;Laerm;64828;49.956;8.636;2024-03-23T02:15:46;60.73;57.32;64.52;;
76100;Laerm;64828;49.956;8.636;2024-03-23T02:16:02;60.31;57.47;62.86;;
76100;Laerm;64828;49.956;8.636;2024-03-23T02:16:18;60.05;56.88;62.41;;
76100;Laerm;64828;49.956;8.636;2024-03-23T02:16:33;59.96;56.69;63.48;;
76100;Laerm;64828;49.956;8.636;2024-03-23T02:16:49;60.96;57.44;64.48;;
76100;Laerm;64828;49.956;8.636;2024-03-23T02:17:05;61.30;57.51;64.51;;
76100;Laerm;64828;49.956;8.636;2024-03-23T02:17:20;61.42;57.88;65.20;;
76100;Laerm;64828;49.956;8.636;2024-03-23T02:17:36;62.12;58.85;65.45;;
76100;Laerm;64828;49.956;8.636;2024-03-23T02:17:52;62.03;58.61;65.35;;
76100;Laerm;64828;49.956;8.636;2024-03-23T02:18:08;62.05;57.96;64.92;;
76100;Laerm;64828;49.956;8.636;2024-03-23T02:18:24;62.05;58.29;65.78;;
76100;Laerm;64828;49.956;8.636;2024-03-23T02:18:40;62.11;58.45;65.01;;
76100;Laerm;64828;49.956;8.636;2024-03-23T02:18:55;62.12;58.27;64.85;;
76100;Laerm;64828;49.956;8.636;2024-03-23T02:19:11;61.66;57.85;64.86;;
76100;Laerm;64828;49.956;8.636;2024-03-23T02:19:27;60.12;57.16;62.53;;
76100;Laerm;64828;49.956;8.636;2024-03-23T02:19:42;61.33;57.65;65.35;;
76100;Laerm;64828;49.956;8.636;2024-03-23T02:19:59;61.67;58.08;65.47;;
76100;Laerm;64828;49.956;8.636;2024-03-23T02:20:15;62.22;57.90;65.72;;
76100;Laerm;64828;49.956;8.636;2024-03-23T02:20:31;62.68;59.24;65.76;;
76100;Laerm;64828;49.956;8.636;2024-03-23T02:20:46;62.17;59.10;65.19;;
76100;Laerm;64828;49.956;8.636;2024-03-23T02:21:03;61.98;58.52;65.20;;
76100;Laerm;64828;49.956;8.636;2024-03-23T02:21:18;61.23;57.38;64.96;;
76100;Laerm;64828;49.956;8.636;2024-03-23T02:21:34;61.99;58.71;64.97;;
76100;Laerm;64828;49.956;8.636;2024-03-23T02:21:50;61.37;57.64;64.89;;
76100;Laerm;64828;49.956;8.636;2024-03-23T02:22:05;60.46;56.96;63.34;;
76100;Laerm;64828;49.956;8.636;2024-03-23T02:22:21;61.18;57.62;64.27;;
76100;Laerm;64828;49.956;8.636;2024-03-23T02:22:38;60.74;57.17;64.36;;
76100;Laerm;64828;49.956;8.636;2024-03-23T02:22:54;60.22;57.25;63.27;;
76100;Laerm;64828;49.956;8.636;2024-03-23T02:23:17;60.61;57.28;63.89;;
76100;Laerm;64828;49.956;8.636;2024-03-23T02:23:33;60.48;57.67;64.15;;